Terminal Aerodrome Forecast
Issued by NWS

Current Version | Previous Version | Text Only | Print | Product List | Glossary On
Versions: 1 2 3 4 5 6 7 8 9 10 11 12
000
FTUS42 TJSJ 260540
TAFJSJ
TAF
TJSJ 260540Z 2606/2706 10004KT P6SM VCSH FEW027 SCT080
     FM261330 07015KT P6SM SCT030 SCT090
     FM262330 09010KT P6SM SCT030=

USA.gov is the U.S. government's official web portal to all federal, state and local government web resources and services.